createdAt,value
2018-06-25T00:02:20.982Z,8.30
2018-06-25T00:04:49.249Z,9.27
2018-06-25T00:07:17.498Z,12.47
2018-06-25T00:09:45.793Z,9.23
2018-06-25T00:12:14.086Z,12.40
2018-06-25T00:14:42.329Z,12.10
2018-06-25T00:17:10.591Z,18.30
2018-06-25T00:19:38.850Z,12.50
2018-06-25T00:22:07.165Z,11.57
2018-06-25T00:24:35.407Z,15.57
2018-06-25T00:27:03.690Z,24.80
2018-06-25T00:29:31.950Z,33.37
2018-06-25T00:32:00.218Z,10.20
2018-06-25T00:34:28.474Z,16.90
2018-06-25T00:36:56.736Z,21.00
2018-06-25T00:39:24.992Z,58.10
2018-06-25T00:41:53.278Z,62.87
2018-06-25T00:44:21.530Z,25.53
2018-06-25T00:46:49.795Z,38.37
2018-06-25T00:49:18.062Z,122.43
2018-06-25T00:51:46.342Z,88.07
2018-06-25T00:54:14.598Z,163.70
2018-06-25T00:56:42.877Z,124.53
2018-06-25T00:59:23.118Z,164.80
2018-06-25T01:01:51.611Z,185.43
2018-06-25T01:04:19.915Z,116.33
2018-06-25T01:06:48.195Z,87.37
2018-06-25T01:09:16.441Z,72.27
2018-06-25T01:11:44.742Z,90.03
2018-06-25T01:14:12.997Z,58.37
2018-06-25T01:16:41.033Z,45.37
2018-06-25T01:19:09.299Z,51.33
2018-06-25T01:21:37.597Z,27.87
2018-06-25T01:24:05.869Z,29.93
2018-06-25T01:26:34.150Z,33.07
2018-06-25T01:29:02.418Z,49.37
2018-06-25T01:31:30.742Z,65.03
2018-06-25T01:33:59.002Z,73.80
2018-06-25T01:36:27.270Z,115.07
2018-06-25T01:38:55.537Z,88.00
2018-06-25T01:41:24.288Z,44.20
2018-06-25T01:43:52.573Z,126.47
2018-06-25T01:46:20.822Z,77.80
2018-06-25T01:48:49.108Z,65.70
2018-06-25T01:51:17.372Z,95.13
2018-06-25T01:53:45.637Z,57.80
2018-06-25T01:56:13.886Z,83.07
2018-06-25T01:58:42.154Z,39.83
2018-06-25T02:01:10.466Z,42.27
2018-06-25T02:03:38.741Z,112.97
2018-06-25T02:06:07.025Z,49.63
2018-06-25T02:08:35.333Z,52.03
2018-06-25T02:11:03.605Z,108.97
2018-06-25T02:13:31.873Z,60.50
2018-06-25T02:16:00.121Z,107.07
2018-06-25T02:18:28.401Z,122.00
2018-06-25T02:20:56.692Z,107.50
2018-06-25T02:23:24.962Z,102.20
2018-06-25T02:25:53.220Z,62.40
2018-06-25T02:28:21.494Z,137.30
2018-06-25T02:30:49.745Z,134.73
2018-06-25T02:33:18.022Z,159.93
2018-06-25T02:35:46.270Z,111.83
2018-06-25T02:38:14.548Z,82.60
2018-06-25T02:40:42.801Z,163.97
2018-06-25T02:43:11.090Z,131.27
2018-06-25T02:45:39.345Z,87.73
2018-06-25T02:48:07.621Z,112.93
2018-06-25T02:50:35.874Z,159.47
2018-06-25T02:53:04.142Z,98.53
2018-06-25T02:55:32.417Z,104.90
2018-06-25T02:58:00.682Z,175.23
2018-06-25T03:00:28.961Z,185.37
2018-06-25T03:02:57.221Z,133.77
2018-06-25T03:05:25.497Z,145.47
2018-06-25T03:07:53.758Z,270.50
2018-06-25T03:10:22.062Z,289.00
2018-06-25T03:12:50.333Z,242.07
2018-06-25T03:15:18.626Z,157.13
2018-06-25T03:17:46.890Z,74.30
2018-06-25T03:20:15.167Z,51.90
2018-06-25T03:22:43.412Z,54.13
2018-06-25T03:25:11.702Z,36.27
2018-06-25T03:27:39.949Z,59.03
2018-06-25T03:30:08.238Z,68.77
2018-06-25T03:32:36.485Z,63.63
2018-06-25T03:35:04.821Z,52.10
2018-06-25T03:37:33.070Z,48.83
2018-06-25T03:40:01.390Z,43.63
2018-06-25T03:42:29.646Z,61.47
2018-06-25T03:44:57.914Z,37.37
2018-06-25T03:47:26.165Z,48.00
2018-06-25T03:49:54.440Z,29.03
2018-06-25T03:52:22.693Z,35.63
2018-06-25T03:54:50.965Z,35.00
2018-06-25T03:57:19.233Z,28.43
2018-06-25T03:59:47.502Z,50.33
2018-06-25T04:02:15.762Z,50.07
2018-06-25T04:04:44.046Z,46.63
2018-06-25T04:07:12.370Z,53.57
2018-06-25T04:09:40.649Z,54.27
2018-06-25T04:12:08.987Z,42.53
2018-06-25T04:14:37.208Z,47.50
2018-06-25T04:17:05.496Z,48.90
2018-06-25T04:19:33.754Z,32.33
2018-06-25T04:22:02.036Z,41.93
2018-06-25T04:24:30.298Z,47.37
2018-06-25T04:26:58.569Z,45.13
2018-06-25T04:29:26.817Z,53.83
2018-06-25T04:31:55.083Z,53.80
2018-06-25T04:34:23.330Z,73.60
2018-06-25T04:36:51.596Z,49.00
2018-06-25T04:39:21.861Z,65.70
2018-06-25T04:41:50.133Z,61.73
2018-06-25T04:44:18.390Z,84.67
2018-06-25T04:46:46.658Z,47.73
2018-06-25T04:49:14.917Z,50.23
2018-06-25T04:51:43.202Z,86.53
2018-06-25T04:54:11.459Z,62.87
2018-06-25T04:56:39.807Z,52.03
2018-06-25T04:59:08.057Z,51.67
2018-06-25T05:01:39.426Z,55.10
2018-06-25T05:04:07.755Z,39.13
2018-06-25T05:06:36.031Z,53.73
2018-06-25T05:09:07.358Z,25.27
2018-06-25T05:11:35.661Z,46.17
2018-06-25T05:14:03.957Z,28.90
2018-06-25T05:16:32.235Z,32.77
2018-06-25T05:19:00.559Z,31.43
2018-06-25T05:21:28.857Z,30.70
2018-06-25T05:23:57.262Z,28.40
2018-06-25T05:26:25.803Z,27.33
2018-06-25T05:28:54.055Z,30.20
2018-06-25T05:31:22.458Z,34.20
2018-06-25T05:33:50.718Z,31.20
2018-06-25T05:36:19.030Z,31.40
2018-06-25T05:38:47.297Z,25.30
2018-06-25T05:41:15.559Z,28.60
2018-06-25T05:43:43.825Z,27.40
2018-06-25T05:46:12.081Z,27.10
2018-06-25T05:48:40.394Z,27.93
2018-06-25T05:51:08.668Z,38.63
2018-06-25T05:53:37.000Z,18.90
2018-06-25T05:56:05.449Z,25.93
2018-06-25T05:58:33.724Z,30.60
2018-06-25T06:01:01.977Z,21.40
2018-06-25T06:03:30.241Z,20.47
2018-06-25T06:05:58.514Z,27.00
2018-06-25T06:08:26.803Z,28.53
2018-06-25T06:10:55.079Z,28.10
2018-06-25T06:13:23.379Z,29.13
2018-06-25T06:15:51.714Z,30.40
2018-06-25T06:18:20.050Z,22.37
2018-06-25T06:20:48.360Z,28.67
2018-06-25T06:23:16.708Z,23.80
2018-06-25T06:25:44.994Z,24.17
2018-06-25T06:28:13.294Z,24.43
2018-06-25T06:30:41.670Z,19.40
2018-06-25T06:33:10.018Z,26.57
2018-06-25T06:35:38.286Z,20.80
2018-06-25T06:38:06.589Z,21.97
2018-06-25T06:40:34.849Z,35.33
2018-06-25T06:43:03.224Z,31.13
2018-06-25T06:45:31.493Z,19.27
2018-06-25T06:47:59.858Z,16.40
2018-06-25T06:50:28.122Z,16.13
2018-06-25T06:52:56.457Z,19.37
2018-06-25T06:55:24.849Z,21.23
2018-06-25T06:57:53.146Z,16.30
2018-06-25T07:00:21.426Z,22.33
2018-06-25T07:02:49.709Z,19.37
2018-06-25T07:05:17.989Z,18.47
2018-06-25T07:07:46.254Z,28.13
2018-06-25T07:10:14.608Z,14.77
2018-06-25T07:12:42.922Z,16.63
2018-06-25T07:15:11.226Z,16.90
2018-06-25T07:17:39.958Z,17.50
2018-06-25T07:20:08.262Z,17.40
2018-06-25T07:22:36.545Z,14.70
2018-06-25T07:25:04.853Z,19.33
2018-06-25T07:27:33.146Z,21.50
2018-06-25T07:30:01.548Z,11.83
2018-06-25T07:32:29.830Z,16.63
2018-06-25T07:34:58.201Z,17.20
2018-06-25T07:37:26.570Z,20.00
2018-06-25T07:39:54.833Z,16.77
2018-06-25T07:42:22.861Z,18.07
2018-06-25T07:44:51.158Z,19.90
2018-06-25T07:47:19.590Z,20.90
2018-06-25T07:49:47.748Z,11.63
2018-06-25T07:52:16.005Z,12.90
2018-06-25T07:54:44.268Z,19.50
2018-06-25T07:57:12.530Z,13.80
2018-06-25T07:59:40.822Z,15.70
2018-06-25T08:02:09.105Z,14.70
2018-06-25T08:04:37.387Z,11.00
2018-06-25T08:07:05.793Z,15.97
2018-06-25T08:09:34.059Z,13.80
2018-06-25T08:12:02.333Z,12.47
2018-06-25T08:14:30.609Z,13.80
2018-06-25T08:16:58.898Z,12.13
2018-06-25T08:19:27.228Z,13.30
2018-06-25T08:21:55.535Z,8.87
2018-06-25T08:24:23.794Z,13.10
2018-06-25T08:26:52.082Z,12.47
2018-06-25T08:29:20.352Z,12.47
2018-06-25T08:31:48.622Z,10.13
2018-06-25T08:34:16.930Z,15.80
2018-06-25T08:36:45.157Z,14.13
2018-06-25T08:39:13.517Z,13.20
2018-06-25T08:41:42.029Z,7.93
2018-06-25T08:44:10.273Z,9.90
2018-06-25T08:46:38.835Z,10.30
2018-06-25T08:49:07.710Z,12.03
2018-06-25T08:51:36.023Z,10.73
2018-06-25T08:54:04.266Z,12.77
2018-06-25T08:56:32.548Z,6.73
2018-06-25T08:59:00.880Z,17.40
2018-06-25T09:01:29.126Z,9.30
2018-06-25T09:03:57.386Z,14.90
2018-06-25T09:06:25.663Z,15.50
2018-06-25T09:08:53.905Z,15.93
2018-06-25T09:11:22.216Z,14.03
2018-06-25T09:13:50.485Z,9.20
2018-06-25T09:16:18.754Z,12.37
2018-06-25T09:18:47.002Z,12.37
2018-06-25T09:21:15.045Z,15.30
2018-06-25T09:23:43.293Z,13.90
2018-06-25T09:26:11.579Z,11.63
2018-06-25T09:28:39.834Z,6.83
2018-06-25T09:31:08.134Z,11.67
2018-06-25T09:33:36.425Z,12.83
2018-06-25T09:36:04.445Z,9.13
2018-06-25T09:38:32.710Z,10.90
2018-06-25T09:41:01.086Z,21.73
2018-06-25T09:43:29.011Z,11.20
2018-06-25T09:45:57.292Z,6.53
2018-06-25T09:48:25.585Z,6.70
2018-06-25T09:50:53.834Z,8.77
2018-06-25T09:53:21.864Z,9.10
2018-06-25T09:55:50.154Z,11.30
2018-06-25T09:58:18.437Z,10.60
2018-06-25T10:00:52.008Z,8.10
2018-06-25T10:03:20.281Z,5.93
2018-06-25T10:05:48.541Z,11.70
2018-06-25T10:08:16.807Z,6.40
2018-06-25T10:10:45.059Z,7.33
2018-06-25T10:13:13.342Z,12.93
2018-06-25T10:15:41.590Z,9.63
2018-06-25T10:18:09.930Z,14.33
2018-06-25T10:20:38.173Z,6.70
2018-06-25T10:23:06.707Z,10.77
2018-06-25T10:25:34.957Z,5.37
2018-06-25T10:28:03.218Z,6.60
2018-06-25T10:30:31.473Z,7.47
2018-06-25T10:32:59.753Z,4.50
2018-06-25T10:35:28.010Z,12.70
2018-06-25T10:37:56.286Z,7.00
2018-06-25T10:40:24.545Z,7.43
2018-06-25T10:42:52.819Z,11.90
2018-06-25T10:45:21.076Z,8.00
2018-06-25T10:47:49.365Z,5.83
2018-06-25T10:50:17.631Z,8.37
2018-06-25T10:52:45.925Z,8.43
2018-06-25T10:55:14.216Z,6.33
2018-06-25T10:57:42.515Z,5.77
2018-06-25T11:00:11.059Z,5.77
2018-06-25T11:02:39.082Z,7.30
2018-06-25T11:05:07.405Z,8.27
2018-06-25T11:07:35.721Z,5.87
2018-06-25T11:10:03.986Z,6.07
2018-06-25T11:12:32.260Z,8.33
2018-06-25T11:15:00.525Z,9.70
2018-06-25T11:17:28.785Z,7.00
2018-06-25T11:19:57.826Z,8.70
2018-06-25T11:22:26.105Z,8.03
2018-06-25T11:24:54.377Z,5.70
2018-06-25T11:27:22.694Z,8.33
2018-06-25T11:29:51.947Z,10.57
2018-06-25T11:32:20.237Z,7.40
2018-06-25T11:34:48.514Z,9.20
2018-06-25T11:37:16.778Z,7.97
2018-06-25T11:39:45.045Z,10.70
2018-06-25T11:42:13.320Z,6.37
2018-06-25T11:44:41.587Z,8.93
2018-06-25T11:47:09.857Z,6.53
2018-06-25T11:49:37.889Z,8.67
2018-06-25T11:52:06.185Z,8.63
2018-06-25T11:54:34.454Z,6.30
2018-06-25T11:57:02.700Z,10.93
2018-06-25T11:59:30.965Z,7.20
2018-06-25T12:01:59.256Z,8.87
2018-06-25T12:04:27.509Z,8.30
2018-06-25T12:06:55.759Z,6.90
2018-06-25T12:09:24.031Z,9.40
2018-06-25T12:11:52.061Z,9.00
2018-06-25T12:14:20.318Z,9.27
2018-06-25T12:16:48.597Z,9.23
2018-06-25T12:19:16.857Z,7.97
2018-06-25T12:21:45.121Z,5.97
2018-06-25T12:24:13.381Z,6.67
2018-06-25T12:26:41.746Z,8.67
2018-06-25T12:29:10.016Z,4.90
2018-06-25T12:31:38.300Z,11.70
2018-06-25T12:34:06.562Z,6.90
2018-06-25T12:36:34.834Z,8.17
2018-06-25T12:39:03.146Z,11.47
2018-06-25T12:41:31.437Z,8.30
2018-06-25T12:43:59.782Z,6.97
2018-06-25T12:46:28.062Z,9.87
2018-06-25T12:48:56.343Z,5.73
2018-06-25T12:51:24.655Z,10.37
2018-06-25T12:53:53.057Z,9.80
2018-06-25T12:56:21.297Z,7.00
2018-06-25T12:58:49.545Z,9.60
2018-06-25T13:01:18.506Z,8.97
2018-06-25T13:03:46.809Z,6.50
2018-06-25T13:06:15.128Z,6.47
2018-06-25T13:08:43.574Z,7.13
2018-06-25T13:11:11.942Z,5.83
2018-06-25T13:13:40.191Z,5.80
2018-06-25T13:16:08.466Z,6.40
2018-06-25T13:18:36.723Z,8.40
2018-06-25T13:21:04.761Z,7.50
2018-06-25T13:23:33.009Z,5.93
2018-06-25T13:26:01.292Z,6.80
2018-06-25T13:28:29.557Z,4.80
2018-06-25T13:30:57.892Z,8.47
2018-06-25T13:33:26.124Z,7.87
2018-06-25T13:35:54.405Z,7.13
2018-06-25T13:38:22.708Z,7.43
2018-06-25T13:40:50.978Z,8.90
2018-06-25T13:43:19.289Z,7.30
2018-06-25T13:45:47.529Z,4.90
2018-06-25T13:48:15.822Z,8.83
2018-06-25T13:50:44.057Z,6.17
2018-06-25T13:53:12.333Z,13.37
2018-06-25T13:55:40.589Z,5.93
2018-06-25T13:58:08.901Z,11.20
2018-06-25T14:00:37.162Z,4.93
2018-06-25T14:03:05.434Z,4.60
2018-06-25T14:05:33.696Z,5.93
2018-06-25T14:08:01.737Z,5.30
2018-06-25T14:10:30.007Z,5.67
2018-06-25T14:12:58.293Z,3.90
2018-06-25T14:15:26.534Z,5.03
2018-06-25T14:17:54.821Z,7.63
2018-06-25T14:20:23.109Z,5.60
2018-06-25T14:22:51.385Z,4.20
2018-06-25T14:25:19.640Z,4.17
2018-06-25T14:28:51.177Z,10.07
2018-06-25T14:31:22.329Z,6.67
2018-06-25T14:34:23.609Z,4.40
2018-06-25T14:36:52.164Z,10.77
2018-06-25T14:39:20.438Z,10.20
2018-06-25T14:41:48.690Z,10.83
2018-06-25T14:44:16.978Z,5.07
2018-06-25T14:46:45.255Z,6.93
2018-06-25T14:49:13.541Z,9.30
2018-06-25T14:51:41.808Z,4.83
2018-06-25T14:54:10.070Z,7.00
2018-06-25T14:56:38.342Z,12.23
2018-06-25T14:59:06.677Z,6.83
2018-06-25T15:01:34.918Z,4.30
2018-06-25T15:04:03.185Z,5.77
2018-06-25T15:06:31.434Z,12.80
2018-06-25T15:08:59.501Z,10.17
2018-06-25T15:11:27.818Z,4.93
2018-06-25T15:13:56.105Z,8.47
2018-06-25T15:16:24.370Z,5.00
2018-06-25T15:18:52.654Z,8.87
2018-06-25T15:21:20.905Z,5.13
2018-06-25T15:23:49.173Z,4.57
2018-06-25T15:26:17.192Z,9.40
2018-06-25T15:28:45.473Z,8.77
2018-06-25T15:31:13.726Z,10.37
2018-06-25T15:33:41.837Z,10.77
2018-06-25T15:36:10.116Z,12.30
2018-06-25T15:38:38.438Z,10.30
2018-06-25T15:41:06.721Z,14.07
2018-06-25T15:43:35.054Z,16.30
2018-06-25T15:46:03.360Z,10.80
2018-06-25T15:48:32.441Z,7.97
2018-06-25T15:51:00.714Z,9.20
2018-06-25T15:53:29.029Z,9.03
2018-06-25T15:55:57.327Z,9.20
2018-06-25T15:58:25.377Z,8.07
2018-06-25T16:00:53.726Z,9.37
2018-06-25T16:03:21.997Z,7.70
2018-06-25T16:05:50.336Z,9.50
2018-06-25T16:08:18.778Z,10.07
2018-06-25T16:10:46.838Z,6.47
2018-06-25T16:13:15.578Z,6.37
2018-06-25T16:15:44.005Z,11.70
2018-06-25T16:18:12.325Z,7.33
2018-06-25T16:20:40.607Z,8.03
2018-06-25T16:23:08.902Z,8.10
2018-06-25T16:25:38.022Z,6.23
2018-06-25T16:28:06.117Z,9.93
2018-06-25T16:30:34.393Z,8.50
2018-06-25T16:33:02.642Z,12.83
2018-06-25T16:35:30.921Z,12.37
2018-06-25T16:37:59.254Z,8.23
2018-06-25T16:40:27.324Z,13.07
2018-06-25T16:42:55.601Z,5.47
2018-06-25T16:45:31.020Z,14.73
2018-06-25T16:47:59.450Z,6.33
2018-06-25T16:50:27.738Z,11.43
2018-06-25T16:52:56.022Z,18.10
2018-06-25T16:55:24.577Z,6.93
2018-06-25T16:57:52.853Z,7.17
2018-06-25T17:00:21.201Z,9.63
2018-06-25T17:02:49.465Z,12.33
2018-06-25T17:05:17.775Z,12.67
2018-06-25T17:07:46.189Z,14.33
2018-06-25T17:10:14.483Z,11.23
2018-06-25T17:12:42.794Z,17.50
2018-06-25T17:15:11.110Z,12.87
2018-06-25T17:17:39.433Z,14.47
2018-06-25T17:20:07.743Z,19.23
2018-06-25T17:22:44.012Z,15.53
2018-06-25T17:25:12.351Z,13.87
2018-06-25T17:27:40.786Z,19.30
2018-06-25T17:30:09.094Z,12.13
2018-06-25T17:32:37.390Z,17.30
2018-06-25T17:35:05.717Z,12.23
2018-06-25T17:37:34.010Z,12.20
2018-06-25T17:40:02.292Z,11.70
2018-06-25T17:42:30.570Z,11.27
2018-06-25T17:44:58.838Z,11.50
2018-06-25T17:47:27.113Z,10.70
2018-06-25T17:49:55.474Z,12.33
2018-06-25T17:52:23.785Z,10.97
2018-06-25T17:54:52.053Z,18.23
2018-06-25T17:57:20.396Z,11.33
2018-06-25T17:59:51.450Z,10.63
2018-06-25T18:02:27.123Z,7.37
2018-06-25T18:04:55.469Z,9.90
2018-06-25T18:07:23.749Z,10.43
2018-06-25T18:09:51.997Z,7.20
2018-06-25T18:12:20.641Z,10.33
2018-06-25T18:14:48.903Z,9.67
2018-06-25T18:17:17.195Z,7.90
2018-06-25T18:19:45.470Z,7.83
2018-06-25T18:22:13.763Z,9.47
2018-06-25T18:24:42.107Z,7.70
2018-06-25T18:27:10.415Z,9.27
2018-06-25T18:29:38.809Z,11.43
2018-06-25T18:32:07.073Z,11.03
2018-06-25T18:34:35.172Z,6.90
2018-06-25T18:37:03.711Z,7.83
2018-06-25T18:39:32.065Z,6.33
2018-06-25T18:42:18.542Z,8.33
2018-06-25T18:44:47.340Z,5.90
2018-06-25T18:47:16.087Z,11.57
2018-06-25T18:49:44.397Z,7.70
2018-06-25T18:52:12.925Z,7.23
2018-06-25T18:54:41.225Z,7.40
2018-06-25T18:57:09.543Z,7.17
2018-06-25T18:59:38.645Z,9.80
2018-06-25T19:02:06.965Z,9.63
2018-06-25T19:04:35.324Z,11.33
2018-06-25T19:07:03.802Z,9.97
2018-06-25T19:09:32.082Z,8.47
2018-06-25T19:12:00.349Z,8.43
2018-06-25T19:14:28.690Z,10.30
2018-06-25T19:16:59.041Z,8.67
2018-06-25T19:19:27.899Z,9.50
2018-06-25T19:21:56.316Z,12.03
2018-06-25T19:24:24.619Z,10.47
2018-06-25T19:26:53.139Z,13.80
2018-06-25T19:29:29.137Z,8.93
2018-06-25T19:32:03.917Z,8.90
2018-06-25T19:34:34.407Z,11.13
2018-06-25T19:37:02.832Z,9.30
2018-06-25T19:39:31.177Z,10.13
2018-06-25T19:41:59.735Z,10.57
2018-06-25T19:44:28.030Z,9.30
2018-06-25T19:46:56.386Z,9.40
2018-06-25T19:49:24.994Z,9.07
2018-06-25T19:51:53.295Z,13.60
2018-06-25T19:54:21.596Z,10.67
2018-06-25T19:56:55.659Z,11.50
2018-06-25T19:59:24.023Z,10.67
2018-06-25T20:01:52.314Z,8.00
2018-06-25T20:04:20.590Z,10.90
2018-06-25T20:06:48.858Z,12.93
2018-06-25T20:09:19.299Z,19.87
2018-06-25T20:11:47.637Z,7.80
2018-06-25T20:14:15.941Z,9.40
2018-06-25T20:16:44.764Z,14.37
2018-06-25T20:19:13.006Z,10.68
2018-06-25T20:21:41.269Z,9.60
2018-06-25T20:24:09.521Z,10.20
2018-06-25T20:26:37.793Z,10.23
2018-06-25T20:29:06.144Z,12.07
2018-06-25T20:31:34.146Z,12.67
2018-06-25T20:34:02.186Z,14.87
2018-06-25T20:36:30.600Z,9.53
2018-06-25T20:38:58.895Z,13.83
2018-06-25T20:41:27.186Z,15.10
2018-06-25T20:43:55.434Z,8.90
2018-06-25T20:46:23.727Z,12.73
2018-06-25T20:48:52.102Z,11.73
2018-06-25T20:51:20.437Z,11.77
2018-06-25T20:53:48.693Z,10.17
2018-06-25T20:56:16.970Z,9.83
2018-06-25T20:58:45.227Z,8.43
2018-06-25T21:01:13.517Z,19.40
2018-06-25T21:03:41.782Z,11.17
2018-06-25T21:06:10.058Z,7.90
2018-06-25T21:08:38.521Z,12.30
2018-06-25T21:11:07.110Z,11.33
2018-06-25T21:13:35.451Z,11.87
2018-06-25T21:16:03.746Z,17.63
2018-06-25T21:18:32.027Z,12.57
2018-06-25T21:21:00.109Z,14.13
2018-06-25T21:23:28.233Z,18.10
2018-06-25T21:25:56.273Z,16.17
2018-06-25T21:28:24.550Z,11.13
2018-06-25T21:30:52.581Z,12.90
2018-06-25T21:33:20.901Z,15.20
2018-06-25T21:35:49.238Z,13.20
2018-06-25T21:38:17.461Z,14.50
2018-06-25T21:40:45.734Z,16.07
2018-06-25T21:43:14.019Z,17.43
2018-06-25T21:45:42.269Z,14.13
2018-06-25T21:48:10.553Z,16.97
2018-06-25T21:50:38.801Z,15.37
2018-06-25T21:53:06.840Z,12.77
2018-06-25T21:55:35.081Z,8.73
2018-06-25T21:58:03.162Z,9.13
2018-06-25T22:00:42.986Z,14.23
2018-06-25T22:03:11.350Z,13.20
2018-06-25T22:05:39.607Z,20.07
2018-06-25T22:08:07.898Z,26.93
2018-06-25T22:10:36.157Z,17.20
2018-06-25T22:13:04.754Z,17.83
2018-06-25T22:15:33.043Z,17.50
2018-06-25T22:18:01.554Z,21.27
2018-06-25T22:20:29.814Z,22.37
2018-06-25T22:22:58.094Z,24.10
2018-06-25T22:25:26.410Z,19.20
2018-06-25T22:27:54.747Z,20.13
2018-06-25T22:30:23.278Z,19.30
2018-06-25T22:32:51.537Z,27.23
2018-06-25T22:35:19.822Z,16.63
2018-06-25T22:37:48.450Z,21.27
2018-06-25T22:40:16.886Z,18.27
2018-06-25T22:42:45.133Z,27.50
2018-06-25T22:45:13.594Z,20.33
2018-06-25T22:47:41.847Z,17.20
2018-06-25T22:50:10.130Z,25.33
2018-06-25T22:52:38.439Z,20.60
2018-06-25T22:55:06.994Z,20.97
2018-06-25T22:57:35.249Z,26.23
2018-06-25T23:00:03.650Z,21.97
2018-06-25T23:02:31.926Z,28.43
2018-06-25T23:05:00.204Z,29.43
2018-06-25T23:07:28.529Z,28.87
2018-06-25T23:09:56.806Z,26.33
2018-06-25T23:12:25.110Z,24.87
2018-06-25T23:14:53.377Z,25.00
2018-06-25T23:17:21.633Z,18.47
2018-06-25T23:19:49.910Z,34.13
2018-06-25T23:22:18.160Z,28.63
2018-06-25T23:24:46.449Z,41.17
2018-06-25T23:27:14.706Z,60.40
2018-06-25T23:29:42.973Z,52.37
2018-06-25T23:32:11.344Z,43.57
2018-06-25T23:34:39.694Z,54.47
2018-06-25T23:37:07.950Z,43.33
2018-06-25T23:39:36.225Z,37.70
2018-06-25T23:42:04.478Z,47.13
2018-06-25T23:44:32.757Z,28.37
2018-06-25T23:47:01.045Z,34.50
2018-06-25T23:49:29.305Z,34.67
2018-06-25T23:51:57.591Z,30.83
2018-06-25T23:54:25.842Z,40.33
2018-06-25T23:56:54.154Z,30.23
2018-06-25T23:59:22.422Z,35.03
